Weather at Béziers-Vias Airport

Public forecast

Using degrees Celsius for public forecast. Weather courtesy of forecast.io.

Current aviation weather report (METAR) for Béziers-Vias Airport

2024/05/28 00:30 (retrieved 26 minutes ago)

LFMU 280030Z AUTO 30008KT CAVOK 12/10 Q1021

Aviation forecast (TAF) for Béziers-Vias Airport

2024/05/27 20:37 (retrieved 4 hours ago)

TAF LFMU 272030Z 2720/2815 CNL